createdAt,value
2023-01-20T00:01:09.827Z,1.68
2023-01-20T00:03:36.848Z,1.57
2023-01-20T00:06:03.596Z,1.68
2023-01-20T00:08:30.160Z,1.75
2023-01-20T00:10:56.966Z,1.67
2023-01-20T00:13:23.619Z,1.73
2023-01-20T00:15:50.151Z,1.69
2023-01-20T00:18:16.829Z,1.76
2023-01-20T00:20:43.949Z,1.61
2023-01-20T00:23:11.003Z,1.67
2023-01-20T00:25:37.642Z,1.68
2023-01-20T00:28:04.990Z,1.72
2023-01-20T00:30:32.373Z,1.66
2023-01-20T00:33:00.335Z,1.72
2023-01-20T00:35:28.463Z,1.69
2023-01-20T00:37:55.585Z,1.63
2023-01-20T00:40:22.504Z,1.75
2023-01-20T00:42:49.325Z,1.80
2023-01-20T00:45:16.133Z,1.73
2023-01-20T00:47:42.632Z,1.69
2023-01-20T00:50:09.804Z,1.71
2023-01-20T00:52:36.437Z,1.76
2023-01-20T00:55:03.045Z,1.73
2023-01-20T00:57:29.503Z,1.76
2023-01-20T00:59:56.069Z,1.75
2023-01-20T01:02:22.526Z,1.68
2023-01-20T01:04:50.729Z,1.57
2023-01-20T01:07:18.560Z,1.58
2023-01-20T01:09:45.453Z,1.62
2023-01-20T01:12:11.944Z,1.63
2023-01-20T01:14:38.325Z,1.64
2023-01-20T01:17:04.799Z,1.68
2023-01-20T01:19:31.239Z,1.70
2023-01-20T01:21:57.753Z,1.65
2023-01-20T01:24:24.212Z,1.64
2023-01-20T01:26:52.945Z,1.74
2023-01-20T01:29:19.389Z,1.66
2023-01-20T01:31:45.873Z,1.69
2023-01-20T01:34:12.354Z,1.72
2023-01-20T01:36:38.905Z,1.84
2023-01-20T01:39:05.325Z,1.78
2023-01-20T01:41:31.967Z,1.76
2023-01-20T01:44:01.385Z,1.76
2023-01-20T01:46:27.906Z,1.71
2023-01-20T01:48:54.771Z,1.74
2023-01-20T01:51:26.047Z,1.69
2023-01-20T01:53:59.925Z,1.61
2023-01-20T01:56:27.567Z,1.58
2023-01-20T01:58:56.892Z,1.60
2023-01-20T02:01:23.635Z,1.61
2023-01-20T02:04:21.892Z,1.66
2023-01-20T02:06:51.273Z,1.71
2023-01-20T02:09:18.592Z,1.75
2023-01-20T02:11:58.102Z,1.73
2023-01-20T02:14:29.611Z,1.72
2023-01-20T02:17:02.140Z,1.73
2023-01-20T02:19:50.899Z,1.69
2023-01-20T02:22:29.948Z,1.68
2023-01-20T02:25:11.038Z,1.68
2023-01-20T02:28:10.247Z,1.68
2023-01-20T02:30:43.345Z,1.67
2023-01-20T02:33:13.581Z,1.68
2023-01-20T02:35:49.996Z,1.68
2023-01-20T02:38:28.024Z,1.72
2023-01-20T02:41:12.889Z,1.72
2023-01-20T02:43:47.169Z,1.60
2023-01-20T02:46:33.182Z,1.64
2023-01-20T02:49:12.734Z,1.70
2023-01-20T02:51:47.814Z,1.68
2023-01-20T02:54:17.076Z,1.66
2023-01-20T02:56:43.898Z,1.63
2023-01-20T02:59:12.459Z,1.62
2023-01-20T03:01:48.704Z,1.56
2023-01-20T03:04:20.073Z,1.51
2023-01-20T03:06:50.020Z,1.47
2023-01-20T03:09:21.804Z,1.41
2023-01-20T03:11:51.716Z,1.39
2023-01-20T03:14:18.242Z,1.30
2023-01-20T03:16:48.175Z,1.29
2023-01-20T03:19:16.426Z,1.26
2023-01-20T03:21:43.525Z,1.25
2023-01-20T03:24:10.715Z,1.18
2023-01-20T03:26:38.315Z,1.06
2023-01-20T03:29:06.952Z,1.05
2023-01-20T03:31:38.459Z,1.06
2023-01-20T03:34:11.079Z,1.11
2023-01-20T03:36:38.320Z,1.16
2023-01-20T03:39:05.213Z,1.06
2023-01-20T03:42:07.179Z,1.05
2023-01-20T03:45:01.630Z,1.09
2023-01-20T03:47:40.910Z,1.03
2023-01-20T03:50:21.227Z,1.11
2023-01-20T03:53:01.802Z,1.06
2023-01-20T03:55:37.421Z,1.07
2023-01-20T03:58:17.389Z,1.08
2023-01-20T04:00:46.754Z,1.02
2023-01-20T04:03:26.447Z,1.02
2023-01-20T04:05:53.311Z,1.01
2023-01-20T04:08:22.435Z,0.97
2023-01-20T04:10:50.203Z,0.93
2023-01-20T04:13:16.924Z,0.93
2023-01-20T04:15:46.631Z,0.89
2023-01-20T04:18:16.120Z,0.87
2023-01-20T04:20:44.802Z,0.84
2023-01-20T04:23:37.951Z,0.84
2023-01-20T04:26:04.548Z,0.83
2023-01-20T04:28:32.177Z,0.83
2023-01-20T04:30:58.905Z,0.80
2023-01-20T04:33:25.417Z,0.89
2023-01-20T04:35:52.767Z,0.91
2023-01-20T04:38:19.227Z,0.90
2023-01-20T04:40:45.631Z,0.92
2023-01-20T04:43:12.418Z,0.94
2023-01-20T04:45:41.199Z,0.89
2023-01-20T04:48:08.673Z,0.87
2023-01-20T04:50:41.580Z,0.91
2023-01-20T04:53:11.462Z,0.91
2023-01-20T04:55:37.852Z,0.95
2023-01-20T04:58:04.503Z,1.01
2023-01-20T05:00:30.920Z,0.94
2023-01-20T05:02:58.497Z,0.86
2023-01-20T05:05:25.179Z,0.90
2023-01-20T05:07:53.547Z,0.74
2023-01-20T05:10:21.141Z,0.70
2023-01-20T05:12:47.855Z,0.73
2023-01-20T05:15:14.855Z,0.76
2023-01-20T05:17:41.756Z,0.94
2023-01-20T05:20:09.224Z,0.90
2023-01-20T05:22:35.962Z,0.89
2023-01-20T05:25:02.578Z,0.93
2023-01-20T05:27:29.032Z,0.91
2023-01-20T05:29:55.481Z,0.86
2023-01-20T05:32:22.176Z,0.86
2023-01-20T05:34:48.635Z,0.83
2023-01-20T05:37:17.767Z,0.90
2023-01-20T05:39:44.534Z,0.99
2023-01-20T05:42:11.219Z,1.04
2023-01-20T05:44:38.350Z,1.04
2023-01-20T05:47:04.906Z,1.10
2023-01-20T05:49:31.365Z,1.01
2023-01-20T05:51:57.935Z,0.95
2023-01-20T05:54:24.551Z,0.93
2023-01-20T05:56:51.101Z,0.87
2023-01-20T05:59:17.777Z,0.86
2023-01-20T06:01:44.235Z,0.85
2023-01-20T06:04:10.642Z,0.97
2023-01-20T06:06:37.848Z,0.92
2023-01-20T06:09:04.294Z,0.86
2023-01-20T06:11:30.690Z,0.89
2023-01-20T06:13:57.131Z,0.97
2023-01-20T06:16:23.592Z,0.88
2023-01-20T06:18:50.160Z,0.95
2023-01-20T06:21:16.653Z,0.96
2023-01-20T06:23:43.111Z,0.97
2023-01-20T06:26:13.365Z,1.10
2023-01-20T06:28:39.945Z,1.11
2023-01-20T06:31:11.529Z,1.15
2023-01-20T06:33:38.087Z,1.19
2023-01-20T06:36:05.590Z,1.23
2023-01-20T06:38:33.857Z,1.24
2023-01-20T06:41:02.766Z,1.17
2023-01-20T06:43:30.301Z,1.19
2023-01-20T06:46:01.574Z,1.22
2023-01-20T06:48:28.283Z,1.20
2023-01-20T06:51:00.565Z,1.19
2023-01-20T06:53:26.987Z,1.20
2023-01-20T06:55:56.667Z,1.14
2023-01-20T06:58:24.945Z,1.21
2023-01-20T07:00:52.607Z,1.21
2023-01-20T07:03:19.359Z,1.15
2023-01-20T07:05:55.178Z,1.14
2023-01-20T07:08:21.813Z,1.16
2023-01-20T07:10:48.181Z,1.10
2023-01-20T07:13:14.645Z,1.11
2023-01-20T07:15:41.337Z,1.08
2023-01-20T07:18:07.914Z,1.13
2023-01-20T07:20:34.329Z,1.07
2023-01-20T07:23:01.771Z,1.07
2023-01-20T07:25:28.448Z,1.06
2023-01-20T07:27:55.087Z,1.07
2023-01-20T07:30:21.473Z,1.10
2023-01-20T07:32:48.085Z,1.14
2023-01-20T07:35:14.734Z,1.26
2023-01-20T07:37:41.250Z,1.29
2023-01-20T07:40:08.823Z,1.20
2023-01-20T07:42:38.880Z,1.29
2023-01-20T07:45:06.097Z,1.26
2023-01-20T07:47:32.522Z,1.21
2023-01-20T07:49:58.902Z,1.20
2023-01-20T07:52:25.350Z,1.26
2023-01-20T07:54:51.815Z,1.31
2023-01-20T07:57:18.283Z,1.32
2023-01-20T07:59:44.716Z,1.31
2023-01-20T08:02:11.110Z,1.32
2023-01-20T08:04:37.541Z,1.36
2023-01-20T08:07:04.038Z,1.43
2023-01-20T08:09:30.437Z,1.25
2023-01-20T08:11:56.935Z,1.34
2023-01-20T08:14:23.462Z,1.40
2023-01-20T08:16:49.971Z,1.39
2023-01-20T08:19:16.495Z,1.44
2023-01-20T08:21:42.890Z,1.49
2023-01-20T08:24:10.226Z,1.46
2023-01-20T08:26:36.842Z,1.57
2023-01-20T08:29:05.509Z,1.50
2023-01-20T08:31:32.235Z,1.58
2023-01-20T08:33:59.199Z,1.45
2023-01-20T08:36:31.993Z,1.42
2023-01-20T08:39:00.118Z,1.50
2023-01-20T08:41:29.626Z,1.57
2023-01-20T08:43:58.697Z,1.53
2023-01-20T08:46:25.306Z,1.57
2023-01-20T08:48:51.935Z,1.56
2023-01-20T08:51:24.629Z,1.60
2023-01-20T08:53:51.693Z,1.63
2023-01-20T08:56:18.907Z,1.61
2023-01-20T08:58:45.674Z,1.60
2023-01-20T09:01:16.964Z,1.62
2023-01-20T09:03:55.418Z,1.70
2023-01-20T09:06:31.517Z,1.76
2023-01-20T09:08:58.151Z,1.77
2023-01-20T09:11:26.279Z,1.78
2023-01-20T09:13:53.945Z,1.80
2023-01-20T09:16:20.562Z,1.81
2023-01-20T09:18:47.262Z,1.81
2023-01-20T09:21:13.745Z,1.84
2023-01-20T09:23:41.089Z,1.92
2023-01-20T09:26:07.774Z,1.95
2023-01-20T09:28:34.943Z,1.99
2023-01-20T09:31:04.656Z,1.93
2023-01-20T09:33:32.493Z,1.94
2023-01-20T09:35:59.739Z,1.97
2023-01-20T09:38:45.848Z,1.96
2023-01-20T09:41:44.905Z,2.01
2023-01-20T09:44:53.940Z,2.04
2023-01-20T09:47:32.449Z,1.96
2023-01-20T09:50:23.864Z,2.02
2023-01-20T09:53:03.904Z,2.02
2023-01-20T09:55:50.890Z,2.09
2023-01-20T09:58:17.320Z,2.12
2023-01-20T10:00:48.798Z,2.13
2023-01-20T10:03:36.906Z,2.19
2023-01-20T10:06:17.721Z,2.12
2023-01-20T10:09:05.523Z,2.22
2023-01-20T10:11:41.888Z,2.30
2023-01-20T10:14:18.500Z,2.30
2023-01-20T10:16:55.099Z,2.28
2023-01-20T10:19:35.501Z,2.29
2023-01-20T10:22:11.287Z,2.30
2023-01-20T10:24:44.611Z,2.29
2023-01-20T10:27:11.024Z,2.29
2023-01-20T10:29:39.615Z,2.30
2023-01-20T10:32:13.443Z,2.30
2023-01-20T10:34:47.367Z,2.27
2023-01-20T10:37:15.521Z,2.37
2023-01-20T10:39:53.325Z,2.45
2023-01-20T10:42:20.205Z,2.53
2023-01-20T10:44:48.436Z,2.55
2023-01-20T10:47:26.113Z,2.55
2023-01-20T10:50:32.403Z,2.60
2023-01-20T10:53:14.108Z,2.59
2023-01-20T10:55:52.633Z,2.61
2023-01-20T10:58:38.141Z,2.52
2023-01-20T11:01:08.998Z,2.48
2023-01-20T11:03:38.123Z,2.55
2023-01-20T11:06:06.197Z,2.50
2023-01-20T11:08:32.820Z,2.48
2023-01-20T11:11:09.131Z,2.45
2023-01-20T11:13:35.643Z,2.46
2023-01-20T11:16:05.077Z,2.41
2023-01-20T11:18:32.958Z,2.36
2023-01-20T11:21:04.806Z,2.47
2023-01-20T11:24:00.670Z,2.53
2023-01-20T11:26:37.971Z,2.55
2023-01-20T11:29:10.219Z,2.66
2023-01-20T11:31:41.709Z,2.64
2023-01-20T11:34:28.417Z,2.65
2023-01-20T11:37:17.339Z,2.58
2023-01-20T11:39:50.254Z,2.57
2023-01-20T11:42:23.600Z,2.38
2023-01-20T11:44:56.111Z,2.57
2023-01-20T11:47:31.336Z,2.55
2023-01-20T11:50:04.056Z,2.58
2023-01-20T11:52:35.639Z,2.63
2023-01-20T11:55:12.159Z,2.53
2023-01-20T11:57:39.740Z,2.68
2023-01-20T12:00:27.130Z,2.61
2023-01-20T12:03:02.518Z,2.66
2023-01-20T12:05:37.456Z,2.63
2023-01-20T12:08:05.004Z,2.56
2023-01-20T12:10:35.141Z,2.58
2023-01-20T12:13:17.219Z,2.57
2023-01-20T12:15:52.885Z,2.46
2023-01-20T12:18:29.723Z,2.52
2023-01-20T12:20:59.477Z,2.58
2023-01-20T12:23:46.339Z,2.45
2023-01-20T12:26:14.376Z,2.53
2023-01-20T12:29:03.084Z,2.40
2023-01-20T12:31:29.909Z,2.52
2023-01-20T12:34:04.922Z,2.57
2023-01-20T12:36:52.431Z,2.44
2023-01-20T12:39:40.165Z,2.36
2023-01-20T12:42:06.828Z,2.38
2023-01-20T12:44:58.644Z,2.39
2023-01-20T12:47:56.097Z,2.46
2023-01-20T12:50:38.212Z,2.59
2023-01-20T12:53:27.007Z,2.57
2023-01-20T12:56:00.171Z,2.63
2023-01-20T12:58:49.472Z,2.47
2023-01-20T13:01:29.467Z,2.46
2023-01-20T13:04:26.188Z,2.52
2023-01-20T13:07:08.768Z,2.47
2023-01-20T13:09:43.216Z,2.51
2023-01-20T13:12:33.323Z,2.52
2023-01-20T13:15:09.356Z,2.39
2023-01-20T13:17:48.178Z,2.44
2023-01-20T13:20:20.754Z,2.48
2023-01-20T13:22:48.430Z,2.40
2023-01-20T13:25:16.873Z,2.24
2023-01-20T13:27:44.636Z,2.30
2023-01-20T13:30:39.642Z,2.24
2023-01-20T13:33:14.528Z,2.30
2023-01-20T13:35:45.109Z,2.33
2023-01-20T13:38:23.462Z,2.25
2023-01-20T13:40:55.477Z,2.31
2023-01-20T13:43:25.586Z,2.28
2023-01-20T13:46:07.251Z,2.24
2023-01-20T13:48:35.759Z,2.26
2023-01-20T13:51:29.113Z,2.18
2023-01-20T13:54:35.501Z,2.11
2023-01-20T13:57:37.578Z,2.22
2023-01-20T14:00:12.038Z,2.12
2023-01-20T14:02:38.966Z,2.12
2023-01-20T14:05:20.193Z,2.24
2023-01-20T14:07:46.646Z,2.27
2023-01-20T14:10:13.835Z,2.21
2023-01-20T14:12:41.385Z,2.20
2023-01-20T14:15:23.189Z,2.17
2023-01-20T14:17:54.165Z,2.04
2023-01-20T14:20:25.678Z,2.07
2023-01-20T14:22:52.662Z,2.05
2023-01-20T14:25:24.658Z,1.95
2023-01-20T14:27:51.708Z,1.96
2023-01-20T14:30:24.717Z,1.92
2023-01-20T14:32:52.919Z,1.80
2023-01-20T14:35:24.657Z,1.81
2023-01-20T14:37:51.935Z,1.77
2023-01-20T14:40:31.377Z,1.78
2023-01-20T14:43:02.947Z,1.85
2023-01-20T14:45:32.358Z,1.72
2023-01-20T14:48:00.222Z,1.70
2023-01-20T14:50:27.129Z,1.71
2023-01-20T14:52:53.540Z,1.63
2023-01-20T14:55:28.224Z,1.66
2023-01-20T14:57:54.920Z,1.62
2023-01-20T15:00:23.916Z,1.57
2023-01-20T15:03:11.353Z,1.50
2023-01-20T15:05:41.670Z,1.47
2023-01-20T15:08:32.709Z,1.44
2023-01-20T15:11:16.499Z,1.50
2023-01-20T15:13:58.666Z,1.50
2023-01-20T15:16:30.964Z,1.42
2023-01-20T15:19:33.257Z,1.20
2023-01-20T15:22:18.455Z,1.30
2023-01-20T15:24:47.402Z,1.38
2023-01-20T15:27:22.199Z,1.41
2023-01-20T15:30:15.924Z,1.42
2023-01-20T15:32:42.625Z,1.39
2023-01-20T15:35:12.995Z,1.39
2023-01-20T15:37:40.620Z,1.48
2023-01-20T15:40:14.250Z,1.53
2023-01-20T15:42:41.861Z,1.50
2023-01-20T15:45:11.722Z,1.50
2023-01-20T15:47:38.442Z,1.48
2023-01-20T15:50:12.519Z,1.49
2023-01-20T15:52:38.993Z,1.26
2023-01-20T15:55:06.078Z,1.32
2023-01-20T15:57:33.026Z,1.40
2023-01-20T15:59:59.433Z,1.40
2023-01-20T16:02:26.033Z,1.44
2023-01-20T16:04:53.394Z,1.45
2023-01-20T16:07:20.692Z,1.41
2023-01-20T16:09:47.797Z,1.42
2023-01-20T16:12:16.655Z,1.40
2023-01-20T16:14:44.565Z,1.47
2023-01-20T16:17:16.287Z,1.47
2023-01-20T16:19:42.710Z,1.43
2023-01-20T16:22:10.622Z,1.43
2023-01-20T16:24:37.930Z,1.41
2023-01-20T16:27:13.835Z,1.42
2023-01-20T16:29:40.337Z,1.25
2023-01-20T16:32:06.815Z,1.32
2023-01-20T16:34:33.625Z,1.27
2023-01-20T16:37:00.525Z,1.31
2023-01-20T16:39:26.925Z,1.35
2023-01-20T16:41:53.765Z,1.25
2023-01-20T16:44:20.443Z,1.24
2023-01-20T16:46:50.024Z,1.18
2023-01-20T16:49:16.593Z,1.22
2023-01-20T16:51:43.040Z,1.25
2023-01-20T16:54:09.494Z,1.27
2023-01-20T16:56:36.266Z,1.33
2023-01-20T16:59:02.819Z,1.28
2023-01-20T17:01:30.677Z,1.25
2023-01-20T17:03:59.738Z,1.26
2023-01-20T17:06:32.228Z,1.19
2023-01-20T17:09:00.046Z,1.17
2023-01-20T17:11:34.972Z,1.20
2023-01-20T17:14:06.264Z,1.21
2023-01-20T17:16:33.344Z,1.18
2023-01-20T17:19:00.717Z,1.18
2023-01-20T17:21:34.500Z,1.15
2023-01-20T17:24:02.808Z,1.12
2023-01-20T17:26:29.846Z,1.19
2023-01-20T17:28:57.824Z,1.10
2023-01-20T17:31:24.585Z,1.13
2023-01-20T17:33:51.696Z,1.13
2023-01-20T17:38:52.727Z,1.03
2023-01-20T17:42:57.749Z,0.90
2023-01-20T17:45:24.329Z,0.94
2023-01-20T17:47:52.139Z,0.96
2023-01-20T17:50:19.048Z,0.97
2023-01-20T17:52:45.608Z,1.00
2023-01-20T17:55:12.748Z,0.89
2023-01-20T17:57:39.521Z,0.90
2023-01-20T18:00:06.678Z,0.96
2023-01-20T18:02:33.257Z,1.00
2023-01-20T18:05:00.407Z,0.93
2023-01-20T18:07:26.818Z,0.90
2023-01-20T18:09:53.260Z,0.87
2023-01-20T18:12:21.454Z,0.89
2023-01-20T18:14:47.987Z,0.83
2023-01-20T18:17:14.499Z,0.88
2023-01-20T18:19:41.084Z,0.83
2023-01-20T18:22:10.266Z,0.86
2023-01-20T18:24:36.738Z,0.86
2023-01-20T18:27:03.311Z,0.93
2023-01-20T18:29:30.188Z,0.84
2023-01-20T18:31:58.205Z,0.79
2023-01-20T18:34:25.039Z,0.90
2023-01-20T18:36:51.970Z,0.96
2023-01-20T18:39:23.732Z,1.00
2023-01-20T18:41:51.933Z,0.94
2023-01-20T18:44:19.180Z,0.95
2023-01-20T18:46:45.761Z,0.85
2023-01-20T18:49:13.920Z,0.91
2023-01-20T18:51:42.268Z,0.88
2023-01-20T18:54:12.004Z,0.84
2023-01-20T18:56:39.224Z,0.91
2023-01-20T18:59:06.514Z,0.85
2023-01-20T19:01:35.842Z,0.87
2023-01-20T19:04:04.303Z,0.78
2023-01-20T19:06:34.398Z,0.82
2023-01-20T19:09:02.133Z,0.83
2023-01-20T19:11:39.554Z,0.80
2023-01-20T19:14:08.134Z,0.80
2023-01-20T19:16:42.291Z,0.74
2023-01-20T19:19:10.801Z,0.81
2023-01-20T19:21:37.848Z,0.71
2023-01-20T19:24:07.905Z,0.73
2023-01-20T19:26:36.249Z,0.72
2023-01-20T19:29:08.555Z,0.68
2023-01-20T19:31:37.664Z,0.71
2023-01-20T19:34:08.340Z,0.53
2023-01-20T19:36:36.409Z,0.50
2023-01-20T19:39:03.720Z,0.49
2023-01-20T19:41:34.499Z,0.50
2023-01-20T19:44:03.229Z,0.45
2023-01-20T19:46:32.302Z,0.48
2023-01-20T19:48:59.879Z,0.55
2023-01-20T19:51:27.119Z,0.59
2023-01-20T19:53:58.050Z,0.60
2023-01-20T19:56:27.096Z,0.59
2023-01-20T19:58:54.779Z,0.58
2023-01-20T20:01:24.739Z,0.57
2023-01-20T20:03:52.513Z,0.62
2023-01-20T20:06:38.003Z,0.66
2023-01-20T20:09:06.533Z,0.66
2023-01-20T20:11:33.467Z,0.69
2023-01-20T20:14:02.582Z,0.75
2023-01-20T20:16:31.554Z,0.68
2023-01-20T20:18:58.482Z,0.61
2023-01-20T20:21:25.748Z,0.53
2023-01-20T20:23:54.521Z,0.61
2023-01-20T20:26:22.710Z,0.56
2023-01-20T20:28:51.299Z,0.55
2023-01-20T20:31:18.799Z,0.65
2023-01-20T20:33:48.547Z,0.52
2023-01-20T20:36:15.511Z,0.53
2023-01-20T20:38:41.999Z,0.54
2023-01-20T20:41:09.243Z,0.39
2023-01-20T20:43:37.510Z,0.42
2023-01-20T20:46:05.995Z,0.47
2023-01-20T20:48:36.724Z,0.47
2023-01-20T20:51:12.646Z,0.57
2023-01-20T20:53:39.536Z,0.59
2023-01-20T20:56:08.083Z,0.62
2023-01-20T20:58:34.960Z,0.51
2023-01-20T21:01:02.784Z,0.43
2023-01-20T21:03:30.229Z,0.50
2023-01-20T21:05:57.846Z,0.48
2023-01-20T21:08:25.959Z,0.39
2023-01-20T21:10:52.833Z,0.43
2023-01-20T21:13:20.248Z,0.42
2023-01-20T21:16:03.563Z,0.34
2023-01-20T21:18:31.215Z,0.44
2023-01-20T21:20:59.599Z,0.42
2023-01-20T21:23:27.374Z,0.48
2023-01-20T21:25:54.087Z,0.50
2023-01-20T21:28:20.737Z,0.34
2023-01-20T21:30:47.484Z,0.36
2023-01-20T21:33:17.581Z,0.44
2023-01-20T21:35:47.564Z,0.39
2023-01-20T21:38:14.360Z,0.35
2023-01-20T21:40:41.669Z,0.27
2023-01-20T21:43:27.711Z,0.21
2023-01-20T21:45:55.312Z,0.20
2023-01-20T21:48:41.968Z,0.28
2023-01-20T21:51:30.859Z,0.17
2023-01-20T21:53:57.429Z,0.24
2023-01-20T21:56:24.057Z,0.05
2023-01-20T21:58:50.627Z,0.02
2023-01-20T22:01:17.094Z,0.12
2023-01-20T22:03:43.565Z,0.11
2023-01-20T22:06:10.209Z,0.09
2023-01-20T22:08:36.937Z,0.08
2023-01-20T22:11:04.870Z,0.11
2023-01-20T22:13:31.616Z,0.19
2023-01-20T22:16:02.233Z,0.18
2023-01-20T22:18:29.739Z,0.18
2023-01-20T22:21:06.594Z,0.26
2023-01-20T22:23:34.307Z,0.20
2023-01-20T22:26:05.225Z,0.17
2023-01-20T22:28:40.494Z,0.12
2023-01-20T22:31:14.144Z,0.17
2023-01-20T22:33:40.789Z,0.23
2023-01-20T22:36:07.647Z,0.22
2023-01-20T22:38:34.470Z,0.29
2023-01-20T22:41:05.654Z,0.16
2023-01-20T22:43:33.886Z,0.10
2023-01-20T22:46:01.730Z,0.26
2023-01-20T22:48:33.604Z,0.20
2023-01-20T22:51:08.948Z,0.09
2023-01-20T22:53:35.923Z,0.15
2023-01-20T22:56:07.096Z,0.05
2023-01-20T22:58:34.363Z,0.03
2023-01-20T23:01:01.461Z,0.08
2023-01-20T23:03:29.186Z,0.13
2023-01-20T23:05:57.759Z,0.10
2023-01-20T23:08:25.906Z,-0.04
2023-01-20T23:10:57.327Z,-0.02
2023-01-20T23:13:24.291Z,0.10
2023-01-20T23:15:51.454Z,-0.04
2023-01-20T23:18:19.111Z,0.05
2023-01-20T23:20:50.122Z,-0.07
2023-01-20T23:23:17.557Z,0.04
2023-01-20T23:25:44.573Z,0.07
2023-01-20T23:28:12.419Z,0.04
2023-01-20T23:30:40.145Z,0.00
2023-01-20T23:33:07.538Z,0.05
2023-01-20T23:35:35.025Z,-0.05
2023-01-20T23:38:01.702Z,-0.02
2023-01-20T23:40:30.388Z,0.04
2023-01-20T23:42:57.235Z,-0.03
2023-01-20T23:45:24.182Z,-0.08
2023-01-20T23:47:52.012Z,0.00
2023-01-20T23:50:18.919Z,-0.18
2023-01-20T23:52:45.736Z,-0.08
2023-01-20T23:55:12.793Z,-0.05
2023-01-20T23:57:39.981Z,-0.03
